Time;durP1;ratioP1;P1;durP2;ratioP2;P2;SDS_P1;SDS_P2;PMS_P1;PMS_P2;Temp;Humidity;BMP_temperature;BMP_pressure;BME280_temperature;BME280_humidity;BME280_pressure;Samples;Min_cycle;Max_cycle;Signal;HPM_P1;HPM_P2
2023/03/24 00:02:20;;;;;;;;;;;13.40;1.00;;;;;;5115191;28;19918;-76
2023/03/24 00:04:49;;;;;;;;;;;13.30;1.00;;;;;;5115286;28;19912;-76
2023/03/24 00:07:15;;;;;;;;;;;13.30;1.00;;;;;;5114247;28;19912;-76
2023/03/24 00:09:44;;;;;;;;;;;13.20;1.00;;;;;;5096867;28;19914;-76
2023/03/24 00:12:12;;;;;;;;;;;13.20;1.00;;;;;;5112302;28;19915;-76
2023/03/24 00:14:39;;;;;;;;;;;13.20;1.00;;;;;;5114860;28;19915;-76
2023/03/24 00:17:08;;;;;;;;;;;13.20;1.00;;;;;;5115158;28;19912;-77
2023/03/24 00:19:39;;;;;;;;;;;13.20;1.00;;;;;;5096615;28;20347;-77
2023/03/24 00:22:13;;;;;;;;;;;13.20;1.00;;;;;;5114762;28;19907;-77
2023/03/24 00:24:50;;;;;;;;;;;13.20;1.00;;;;;;5114171;28;19939;-77
2023/03/24 00:27:17;;;;;;;;;;;13.20;1.00;;;;;;5094737;28;19955;-77
2023/03/24 00:29:43;;;;;;;;;;;13.20;1.00;;;;;;5094275;28;19931;-77
2023/03/24 00:32:29;;;;;;;;;;;13.20;1.00;;;;;;5076593;28;20367;-77
2023/03/24 00:34:54;;;;;;;;;;;13.20;1.00;;;;;;5094503;28;19931;-77
2023/03/24 00:37:20;;;;;;;;;;;13.20;1.00;;;;;;5094496;28;20359;-77
2023/03/24 00:39:50;;;;;;;;;;;13.20;1.00;;;;;;5108561;28;20033;-77
2023/03/24 00:42:26;;;;;;;;;;;13.20;1.00;;;;;;5094081;28;19916;-77
2023/03/24 00:44:57;;;;;;;;;;;13.10;1.00;;;;;;5095311;28;19908;-77
2023/03/24 00:47:24;;;;;;;;;;;13.10;1.00;;;;;;5094597;28;19916;-76
2023/03/24 00:49:52;;;;;;;;;;;13.20;1.00;;;;;;5094082;28;19908;-76
2023/03/24 00:52:32;;;;;;;;;;;13.20;1.00;;;;;;5094033;28;19912;-76
2023/03/24 00:55:00;;;;;;;;;;;13.20;1.00;;;;;;5099609;28;19908;-76
2023/03/24 00:57:28;;;;;;;;;;;13.20;1.00;;;;;;5114694;28;19911;-76
2023/03/24 00:59:55;;;;;;;;;;;13.20;1.00;;;;;;5094439;28;20402;-76
2023/03/24 01:02:45;;;;;;;;;;;13.20;1.00;;;;;;5077556;28;20006;-77
2023/03/24 01:05:16;;;;;;;;;;;13.10;1.00;;;;;;5114540;28;20320;-77
2023/03/24 01:07:42;;;;;;;;;;;13.10;1.00;;;;;;5114753;28;19907;-77
2023/03/24 01:13:27;;;;;;;;;;;13.00;1.00;;;;;;5106216;28;20286;-77
2023/03/24 01:15:54;;;;;;;;;;;13.00;1.00;;;;;;5094006;28;19953;-76
2023/03/24 01:18:19;;;;;;;;;;;12.90;1.00;;;;;;5093965;28;19908;-76
2023/03/24 01:20:52;;;;;;;;;;;12.90;1.00;;;;;;5094077;28;19914;-76
2023/03/24 01:23:19;;;;;;;;;;;13.00;1.00;;;;;;5094029;28;19908;-76
2023/03/24 01:25:51;;;;;;;;;;;13.00;1.00;;;;;;5103578;28;20371;-76
2023/03/24 01:28:23;;;;;;;;;;;13.00;1.00;;;;;;5114213;28;19981;-76
2023/03/24 01:30:49;;;;;;;;;;;13.00;1.00;;;;;;5096066;28;19965;-76
2023/03/24 01:33:21;;;;;;;;;;;13.00;1.00;;;;;;5113993;28;19918;-76
2023/03/24 01:35:46;;;;;;;;;;;13.00;1.00;;;;;;5084083;28;20279;-76
2023/03/24 01:38:13;;;;;;;;;;;13.00;1.00;;;;;;5098189;28;19918;-76
2023/03/24 01:40:45;;;;;;;;;;;13.00;1.00;;;;;;5114310;28;19914;-76
2023/03/24 01:43:18;;;;;;;;;;;13.00;1.00;;;;;;5110224;28;20323;-76
2023/03/24 01:45:53;;;;;;;;;;;13.00;1.00;;;;;;5093539;28;19958;-76
2023/03/24 01:48:21;;;;;;;;;;;13.00;1.00;;;;;;5075785;28;19923;-77
2023/03/24 01:51:10;;;;;;;;;;;13.00;1.00;;;;;;5093883;28;20362;-77
2023/03/24 01:56:47;;;;;;;;;;;12.90;1.00;;;;;;5114181;28;19915;-77
2023/03/24 01:59:23;;;;;;;;;;;12.90;1.00;;;;;;5101256;28;19922;-77
2023/03/24 02:01:51;;;;;;;;;;;12.90;1.00;;;;;;5110346;28;19916;-77
2023/03/24 02:04:37;;;;;;;;;;;12.90;1.00;;;;;;5117402;28;20331;-77
2023/03/24 02:07:21;;;;;;;;;;;12.90;1.00;;;;;;5117604;28;19954;-77
2023/03/24 02:10:20;;;;;;;;;;;12.80;1.00;;;;;;5117276;28;20378;-77
2023/03/24 02:12:50;;;;;;;;;;;12.90;1.00;;;;;;5117434;28;19963;-77
2023/03/24 02:15:35;;;;;;;;;;;12.90;1.00;;;;;;5098887;28;19915;-77
2023/03/24 02:18:17;;;;;;;;;;;12.90;1.00;;;;;;5117632;28;19908;-76
2023/03/24 02:21:14;;;;;;;;;;;12.80;1.00;;;;;;5117195;28;19994;-76
2023/03/24 02:24:02;;;;;;;;;;;12.80;1.00;;;;;;5117369;28;19990;-76
2023/03/24 02:26:38;;;;;;;;;;;12.90;1.00;;;;;;5116810;28;19918;-76
2023/03/24 02:29:27;;;;;;;;;;;12.80;1.00;;;;;;5098648;28;20033;-76
2023/03/24 02:32:20;;;;;;;;;;;12.80;1.00;;;;;;5117469;28;19916;-77
2023/03/24 02:35:00;;;;;;;;;;;12.80;1.00;;;;;;5089962;28;19916;-77
2023/03/24 02:37:38;;;;;;;;;;;12.90;1.00;;;;;;5096644;28;19958;-77
2023/03/24 02:40:21;;;;;;;;;;;12.80;1.60;;;;;;5097824;28;20266;-77
2023/03/24 02:43:08;;;;;;;;;;;12.80;4.10;;;;;;5116908;28;19915;-77
2023/03/24 02:46:02;;;;;;;;;;;12.80;4.30;;;;;;5098241;28;19908;-77
2023/03/24 02:48:45;;;;;;;;;;;12.70;7.50;;;;;;5116888;28;19963;-77
2023/03/24 02:51:41;;;;;;;;;;;12.70;9.70;;;;;;5116797;28;19915;-77
2023/03/24 02:54:14;;;;;;;;;;;12.70;11.30;;;;;;5096017;28;19955;-77
2023/03/24 02:56:52;;;;;;;;;;;12.60;12.50;;;;;;5096169;28;19915;-77
2023/03/24 02:59:40;;;;;;;;;;;12.60;14.70;;;;;;5095851;28;19915;-77
2023/03/24 03:02:08;;;;;;;;;;;12.60;15.20;;;;;;5095735;28;20351;-76
2023/03/24 03:04:48;;;;;;;;;;;12.60;15.40;;;;;;5095853;28;19957;-77
2023/03/24 03:07:44;;;;;;;;;;;12.50;14.50;;;;;;5095627;28;20363;-77
2023/03/24 03:10:18;;;;;;;;;;;12.50;15.20;;;;;;5096036;28;19912;-77
2023/03/24 03:12:45;;;;;;;;;;;12.30;18.00;;;;;;5077493;28;19947;-77
2023/03/24 03:15:23;;;;;;;;;;;12.30;21.20;;;;;;5102456;28;19912;-77
2023/03/24 03:17:58;;;;;;;;;;;12.40;21.40;;;;;;5116298;28;19915;-76
2023/03/24 03:20:29;;;;;;;;;;;12.40;21.30;;;;;;5094155;28;20287;-76
2023/03/24 03:23:01;;;;;;;;;;;12.40;19.80;;;;;;5095507;28;19908;-76
2023/03/24 03:25:29;;;;;;;;;;;12.40;19.40;;;;;;5085238;28;19911;-76
2023/03/24 03:27:58;;;;;;;;;;;12.30;20.20;;;;;;5097594;28;19907;-76
2023/03/24 03:30:32;;;;;;;;;;;12.40;19.70;;;;;;5115262;28;19908;-76
2023/03/24 03:33:17;;;;;;;;;;;12.40;20.00;;;;;;5115931;28;19911;-77
2023/03/24 03:35:51;;;;;;;;;;;12.40;19.70;;;;;;5115785;28;19908;-77
2023/03/24 03:38:36;;;;;;;;;;;12.50;20.10;;;;;;5108084;28;19916;-77
2023/03/24 03:41:03;;;;;;;;;;;12.50;19.80;;;;;;5095128;28;19960;-77
2023/03/24 03:43:33;;;;;;;;;;;12.40;20.20;;;;;;5095032;28;20390;-77
2023/03/24 03:46:05;;;;;;;;;;;12.30;19.70;;;;;;5095061;28;19908;-77
2023/03/24 03:48:31;;;;;;;;;;;12.30;24.30;;;;;;5095365;28;19980;-77
2023/03/24 03:50:57;;;;;;;;;;;12.30;22.20;;;;;;5095351;28;19912;-77
2023/03/24 03:53:25;;;;;;;;;;;12.30;19.40;;;;;;5076653;28;20359;-77
2023/03/24 03:55:52;;;;;;;;;;;12.30;7.80;;;;;;5076900;28;19908;-77
2023/03/24 03:58:18;;;;;;;;;;;12.40;1.00;;;;;;5095134;28;19908;-77
2023/03/24 04:00:44;;;;;;;;;;;12.40;1.00;;;;;;5076716;28;19937;-77
2023/03/24 04:06:04;;;;;;;;;;;12.50;1.00;;;;;;5094827;28;19912;-78
2023/03/24 04:08:38;;;;;;;;;;;12.60;1.00;;;;;;5094640;28;19965;-78
2023/03/24 04:11:31;;;;;;;;;;;12.60;1.00;;;;;;5094764;28;20315;-78
2023/03/24 04:14:05;;;;;;;;;;;12.70;1.00;;;;;;5094822;28;20370;-77
2023/03/24 04:16:56;;;;;;;;;;;12.80;1.00;;;;;;5106440;28;20274;-77
2023/03/24 04:19:26;;;;;;;;;;;12.90;1.00;;;;;;5114986;28;19962;-77
2023/03/24 04:21:53;;;;;;;;;;;13.00;1.00;;;;;;5114779;28;20277;-77
2023/03/24 04:24:38;;;;;;;;;;;13.10;1.00;;;;;;5115060;28;19916;-77
2023/03/24 04:27:08;;;;;;;;;;;13.10;1.00;;;;;;5097955;28;20416;-77
2023/03/24 04:42:12;;;;;;;;;;;13.50;1.00;;;;;;5115494;28;20065;-91
2023/03/24 04:47:42;;;;;;;;;;;13.40;1.00;;;;;;5115191;28;19942;-92
2023/03/24 04:53:11;;;;;;;;;;;13.30;1.00;;;;;;5115338;28;19923;-92
2023/03/24 04:58:40;;;;;;;;;;;13.20;1.00;;;;;;5115168;28;19930;-92
2023/03/24 05:07:14;;;;;;;;;;;12.90;1.20;;;;;;5115219;28;19915;-92
2023/03/24 05:12:42;;;;;;;;;;;12.90;6.60;;;;;;5115231;28;19918;-92
2023/03/24 05:18:11;;;;;;;;;;;13.00;9.60;;;;;;5115289;28;19915;-90
2023/03/24 05:27:02;;;;;;;;;;;12.90;22.40;;;;;;5115030;28;19954;-89
2023/03/24 05:32:31;;;;;;;;;;;12.80;30.40;;;;;;5118780;28;20019;-89
2023/03/24 05:34:56;;;;;;;;;;;12.80;37.60;;;;;;5101053;28;19947;-91
2023/03/24 05:37:26;;;;;;;;;;;12.90;44.30;;;;;;5100415;28;20363;-91
2023/03/24 05:42:55;;;;;;;;;;;12.90;44.70;;;;;;5118557;28;19956;-89
2023/03/24 05:45:44;;;;;;;;;;;12.90;44.20;;;;;;5100480;28;19908;-90
2023/03/24 05:51:13;;;;;;;;;;;12.90;44.50;;;;;;5118483;28;19915;-92
2023/03/24 05:53:39;;;;;;;;;;;13.00;44.30;;;;;;5100126;28;19912;-92
2023/03/24 05:59:04;;;;;;;;;;;13.00;44.50;;;;;;5109452;28;19908;-91
2023/03/24 06:04:32;;;;;;;;;;;12.90;44.50;;;;;;5118338;28;20386;-91
2023/03/24 06:06:59;;;;;;;;;;;13.00;44.40;;;;;;5100054;28;19908;-91
2023/03/24 06:12:33;;;;;;;;;;;12.90;44.50;;;;;;5117608;28;20324;-83
2023/03/24 06:18:04;;;;;;;;;;;12.90;44.50;;;;;;5116248;27;19931;-82
2023/03/24 06:20:44;;;;;;;;;;;13.00;44.40;;;;;;5117137;28;20465;-82
2023/03/24 06:23:11;;;;;;;;;;;13.10;38.10;;;;;;5098918;28;19908;-83
2023/03/24 06:28:41;;;;;;;;;;;13.30;17.80;;;;;;5096654;28;20366;-83
2023/03/24 06:31:29;;;;;;;;;;;13.20;12.10;;;;;;5106500;28;19920;-82
2023/03/24 06:40:00;;;;;;;;;;;13.30;2.90;;;;;;5096348;28;19919;-81
2023/03/24 06:42:45;;;;;;;;;;;13.30;1.00;;;;;;5086919;28;19912;-82
2023/03/24 06:45:33;;;;;;;;;;;13.40;1.00;;;;;;5078074;28;19908;-82
2023/03/24 06:48:20;;;;;;;;;;;13.50;1.00;;;;;;5077994;28;19920;-82
2023/03/24 06:50:51;;;;;;;;;;;13.50;1.00;;;;;;5097751;28;19952;-81
2023/03/24 06:53:17;;;;;;;;;;;13.50;1.00;;;;;;5081001;28;19958;-82
2023/03/24 06:55:42;;;;;;;;;;;13.60;1.00;;;;;;5077945;28;19908;-82
2023/03/24 06:58:15;;;;;;;;;;;13.60;1.00;;;;;;5109210;28;19915;-82
2023/03/24 07:00:45;;;;;;;;;;;13.60;1.00;;;;;;5107571;28;19912;-82
2023/03/24 07:03:32;;;;;;;;;;;13.70;1.00;;;;;;5097002;28;19912;-82
2023/03/24 07:06:09;;;;;;;;;;;13.80;1.00;;;;;;5078222;28;19911;-81
2023/03/24 07:08:35;;;;;;;;;;;14.00;1.00;;;;;;5104548;28;19955;-80
2023/03/24 07:11:01;;;;;;;;;;;14.10;1.00;;;;;;5095272;28;19916;-80
2023/03/24 07:13:44;;;;;;;;;;;14.00;1.00;;;;;;5100771;28;19920;-80
2023/03/24 07:16:10;;;;;;;;;;;14.00;1.00;;;;;;5077758;28;19912;-80
2023/03/24 07:18:44;;;;;;;;;;;14.20;1.00;;;;;;5085205;28;19918;-80
2023/03/24 07:21:20;;;;;;;;;;;14.20;1.00;;;;;;5082555;28;19955;-80
2023/03/24 07:24:02;;;;;;;;;;;14.10;1.00;;;;;;5095561;28;19908;-80
2023/03/24 07:26:32;;;;;;;;;;;14.30;1.00;;;;;;5095634;28;19915;-81
2023/03/24 07:32:01;;;;;;;;;;;14.20;1.00;;;;;;5094982;28;20050;-80
2023/03/24 07:34:51;;;;;;;;;;;14.40;1.00;;;;;;5095340;28;20002;-80
2023/03/24 07:37:17;;;;;;;;;;;14.20;1.00;;;;;;5095796;28;19912;-81
2023/03/24 07:40:15;;;;;;;;;;;14.20;1.00;;;;;;5114461;28;19919;-81
2023/03/24 07:42:50;;;;;;;;;;;14.10;1.00;;;;;;5115953;28;19908;-81
2023/03/24 07:45:20;;;;;;;;;;;13.90;1.00;;;;;;5115435;28;19914;-81
2023/03/24 07:48:02;;;;;;;;;;;14.00;1.00;;;;;;5115573;28;19961;-82
2023/03/24 07:50:32;;;;;;;;;;;13.90;1.00;;;;;;5097507;28;19916;-77
2023/03/24 07:53:02;;;;;;;;;;;13.90;9.00;;;;;;5115049;28;19916;-77
2023/03/24 07:55:32;;;;;;;;;;;13.80;10.00;;;;;;5096909;28;19908;-77
2023/03/24 07:58:08;;;;;;;;;;;13.70;16.10;;;;;;5115586;28;19908;-77
2023/03/24 08:00:45;;;;;;;;;;;13.60;21.20;;;;;;5115048;28;19951;-78
2023/03/24 08:03:24;;;;;;;;;;;13.60;25.60;;;;;;5115164;28;19912;-78
2023/03/24 08:05:49;;;;;;;;;;;13.50;40.90;;;;;;5115720;28;19907;-77
2023/03/24 08:08:27;;;;;;;;;;;13.40;45.10;;;;;;5115172;28;20014;-78
2023/03/24 08:11:26;;;;;;;;;;;13.30;44.80;;;;;;5096810;28;20324;-77
2023/03/24 08:13:52;;;;;;;;;;;13.20;44.70;;;;;;5115218;28;20373;-78
2023/03/24 08:16:21;;;;;;;;;;;13.20;44.80;;;;;;5114918;28;19908;-78
2023/03/24 08:18:47;;;;;;;;;;;13.20;49.90;;;;;;5098876;28;20002;-77
2023/03/24 08:24:16;;;;;;;;;;;13.20;57.20;;;;;;5094601;28;19934;-77
2023/03/24 08:26:51;;;;;;;;;;;13.20;46.40;;;;;;5094401;28;19908;-77
2023/03/24 08:29:20;;;;;;;;;;;13.10;44.70;;;;;;5094653;28;20397;-77
2023/03/24 08:31:46;;;;;;;;;;;13.00;44.60;;;;;;5094375;28;19920;-77
2023/03/24 08:34:14;;;;;;;;;;;13.00;53.00;;;;;;5094611;28;19920;-77
2023/03/24 08:36:44;;;;;;;;;;;13.10;57.60;;;;;;5094715;28;19908;-76
2023/03/24 08:39:38;;;;;;;;;;;13.10;66.80;;;;;;5095181;28;19908;-76
2023/03/24 08:42:14;;;;;;;;;;;13.10;72.10;;;;;;5094563;28;19912;-76
2023/03/24 08:44:45;;;;;;;;;;;13.00;68.10;;;;;;5094149;28;19908;-76
2023/03/24 08:47:21;;;;;;;;;;;13.00;55.90;;;;;;5094495;28;20244;-76
2023/03/24 08:49:53;;;;;;;;;;;13.10;54.70;;;;;;5094032;28;19922;-76
2023/03/24 08:52:20;;;;;;;;;;;13.00;63.00;;;;;;5094515;28;20004;-76
2023/03/24 08:54:46;;;;;;;;;;;13.00;67.70;;;;;;5093646;28;19919;-76
2023/03/24 08:57:12;;;;;;;;;;;13.00;74.40;;;;;;5094147;28;19908;-76
2023/03/24 08:59:37;;;;;;;;;;;12.90;73.80;;;;;;5098755;28;20030;-75
2023/03/24 09:02:03;;;;;;;;;;;12.80;59.20;;;;;;5114406;28;19908;-76
2023/03/24 09:04:41;;;;;;;;;;;12.60;44.20;;;;;;5094794;28;19915;-76
2023/03/24 09:07:15;;;;;;;;;;;12.50;44.30;;;;;;5098442;28;20019;-76
2023/03/24 09:09:45;;;;;;;;;;;12.50;44.10;;;;;;5098229;28;20368;-76
2023/03/24 09:12:26;;;;;;;;;;;12.50;44.10;;;;;;5098200;28;19908;-76
2023/03/24 09:14:52;;;;;;;;;;;12.40;44.20;;;;;;5098240;28;19916;-76
2023/03/24 09:17:18;;;;;;;;;;;12.40;44.10;;;;;;5097237;28;19955;-76
2023/03/24 09:19:44;;;;;;;;;;;12.30;43.90;;;;;;5098278;28;19959;-76
2023/03/24 09:22:10;;;;;;;;;;;12.30;44.10;;;;;;5105056;28;19974;-75
2023/03/24 09:24:35;;;;;;;;;;;12.30;44.00;;;;;;5105366;27;19912;-75
2023/03/24 09:27:02;;;;;;;;;;;12.20;47.90;;;;;;5103296;28;19956;-74
2023/03/24 09:29:29;;;;;;;;;;;12.20;43.90;;;;;;5114199;28;19908;-75
2023/03/24 09:31:56;;;;;;;;;;;12.10;43.80;;;;;;5097979;28;19917;-75
2023/03/24 09:34:23;;;;;;;;;;;12.20;43.90;;;;;;5097964;28;20335;-75
2023/03/24 09:36:48;;;;;;;;;;;12.30;44.00;;;;;;5097891;28;19934;-74
2023/03/24 09:39:14;;;;;;;;;;;12.40;44.00;;;;;;5098740;28;19998;-76
2023/03/24 09:41:44;;;;;;;;;;;12.60;44.30;;;;;;5097840;28;19951;-75
2023/03/24 09:44:26;;;;;;;;;;;12.70;28.10;;;;;;5097913;28;19908;-75
2023/03/24 09:46:55;;;;;;;;;;;12.70;35.00;;;;;;5097908;28;19912;-75
2023/03/24 09:49:36;;;;;;;;;;;12.90;22.20;;;;;;5097092;28;19980;-75
2023/03/24 09:52:05;;;;;;;;;;;13.00;19.50;;;;;;5098168;28;20385;-76
2023/03/24 09:55:01;;;;;;;;;;;13.00;21.20;;;;;;5097223;28;19915;-76
2023/03/24 09:57:35;;;;;;;;;;;13.20;18.10;;;;;;5094999;28;19937;-75
2023/03/24 10:00:07;;;;;;;;;;;13.30;8.00;;;;;;5097421;28;19995;-74
2023/03/24 10:02:33;;;;;;;;;;;13.20;7.80;;;;;;5097053;28;19917;-74
2023/03/24 10:04:59;;;;;;;;;;;13.20;10.90;;;;;;5097104;28;20282;-74
2023/03/24 10:07:25;;;;;;;;;;;13.10;8.80;;;;;;5097358;28;19908;-76
2023/03/24 10:09:58;;;;;;;;;;;13.00;11.40;;;;;;5078767;28;19931;-73
2023/03/24 10:12:41;;;;;;;;;;;12.90;19.40;;;;;;5096815;28;20040;-74
2023/03/24 10:15:16;;;;;;;;;;;12.90;18.10;;;;;;5097109;28;19988;-74
2023/03/24 10:17:44;;;;;;;;;;;12.80;26.10;;;;;;5095899;28;19916;-74
2023/03/24 10:20:29;;;;;;;;;;;12.70;34.00;;;;;;5096828;28;19915;-74
2023/03/24 10:23:07;;;;;;;;;;;12.60;37.50;;;;;;5079159;28;19908;-74
2023/03/24 10:25:32;;;;;;;;;;;12.50;44.20;;;;;;5096605;28;20371;-74
2023/03/24 10:28:00;;;;;;;;;;;12.50;44.00;;;;;;5096881;28;19922;-74
2023/03/24 10:30:28;;;;;;;;;;;12.50;44.10;;;;;;5096742;28;20007;-74
2023/03/24 10:33:03;;;;;;;;;;;12.50;44.10;;;;;;5096416;28;19916;-74
2023/03/24 10:35:36;;;;;;;;;;;12.50;44.10;;;;;;5096699;28;19908;-73
2023/03/24 10:38:05;;;;;;;;;;;12.40;44.00;;;;;;5100764;28;20013;-73
2023/03/24 10:40:32;;;;;;;;;;;12.50;44.10;;;;;;5116983;28;19965;-73
2023/03/24 10:42:58;;;;;;;;;;;12.60;44.20;;;;;;5116678;28;19919;-74
2023/03/24 10:45:33;;;;;;;;;;;12.70;44.30;;;;;;5117433;28;19908;-74
2023/03/24 10:48:00;;;;;;;;;;;13.10;44.70;;;;;;5098325;28;20268;-74
2023/03/24 10:50:28;;;;;;;;;;;13.20;28.60;;;;;;5105101;28;20398;-74
2023/03/24 10:52:54;;;;;;;;;;;13.30;31.20;;;;;;5096643;28;19940;-74
2023/03/24 10:55:23;;;;;;;;;;;13.50;21.00;;;;;;5103349;28;19912;-74
2023/03/24 10:57:52;;;;;;;;;;;13.70;12.40;;;;;;5108653;28;19912;-73
2023/03/24 11:00:30;;;;;;;;;;;13.70;1.00;;;;;;5096361;28;20379;-74
2023/03/24 11:03:11;;;;;;;;;;;13.60;1.00;;;;;;5096181;28;19916;-73
2023/03/24 11:05:38;;;;;;;;;;;13.50;2.10;;;;;;5095858;28;19938;-74
2023/03/24 11:08:10;;;;;;;;;;;13.60;11.70;;;;;;5078000;28;20002;-75
2023/03/24 11:10:36;;;;;;;;;;;13.70;8.20;;;;;;5077543;28;19908;-75
2023/03/24 11:13:04;;;;;;;;;;;13.80;6.70;;;;;;5095643;28;20386;-78
2023/03/24 11:15:31;;;;;;;;;;;13.70;1.00;;;;;;5077510;28;19908;-75
2023/03/24 11:18:12;;;;;;;;;;;13.70;2.40;;;;;;5095622;28;19908;-76
2023/03/24 11:21:03;;;;;;;;;;;13.70;5.80;;;;;;5095643;28;19995;-76
2023/03/24 11:23:32;;;;;;;;;;;13.90;4.80;;;;;;5081910;28;19965;-74
2023/03/24 11:26:01;;;;;;;;;;;14.10;5.90;;;;;;5114867;28;19912;-74
2023/03/24 11:28:27;;;;;;;;;;;14.20;1.50;;;;;;5115953;28;19911;-74
2023/03/24 11:30:54;;;;;;;;;;;14.40;1.00;;;;;;5103204;28;20344;-74
2023/03/24 11:33:21;;;;;;;;;;;14.40;1.00;;;;;;5095548;28;19912;-74
2023/03/24 11:35:51;;;;;;;;;;;14.70;1.00;;;;;;5095653;28;19908;-74
2023/03/24 11:38:18;;;;;;;;;;;14.70;1.00;;;;;;5096857;28;19916;-74
2023/03/24 11:40:56;;;;;;;;;;;15.10;1.00;;;;;;5095549;28;19908;-74
2023/03/24 11:43:22;;;;;;;;;;;15.10;1.00;;;;;;5095466;28;19909;-74
2023/03/24 11:46:03;;;;;;;;;;;15.10;1.00;;;;;;5095386;28;19914;-74
2023/03/24 11:48:55;;;;;;;;;;;15.30;1.00;;;;;;5090944;28;19912;-74
2023/03/24 11:51:31;;;;;;;;;;;15.30;1.00;;;;;;5082202;28;20259;-74
2023/03/24 11:53:58;;;;;;;;;;;15.60;1.00;;;;;;5110667;28;20386;-74
2023/03/24 11:56:30;;;;;;;;;;;15.50;1.00;;;;;;5097044;28;20248;-75
2023/03/24 11:58:59;;;;;;;;;;;15.50;1.00;;;;;;5115214;28;19912;-75
2023/03/24 12:01:24;;;;;;;;;;;15.60;1.00;;;;;;5097473;28;19909;-75
2023/03/24 12:03:56;;;;;;;;;;;15.50;1.00;;;;;;5108672;28;19914;-74
2023/03/24 12:07:00;;;;;;;;;;;15.80;1.00;;;;;;5096837;28;20290;-74
2023/03/24 12:09:33;;;;;;;;;;;15.80;1.00;;;;;;5052978;28;19909;-75
2023/03/24 12:15:04;;;;;;;;;;;15.30;1.00;;;;;;5052199;28;19932;-74
2023/03/24 12:17:53;;;;;;;;;;;15.10;1.00;;;;;;5052655;28;19963;-75
2023/03/24 12:20:39;;;;;;;;;;;15.20;1.00;;;;;;5052142;28;19909;-75
2023/03/24 12:23:13;;;;;;;;;;;15.30;1.00;;;;;;5050076;28;19909;-74
2023/03/24 12:25:48;;;;;;;;;;;15.40;1.00;;;;;;5032443;28;20316;-75
2023/03/24 12:28:16;;;;;;;;;;;15.50;1.00;;;;;;5042674;28;20378;-74
2023/03/24 12:30:45;;;;;;;;;;;15.60;1.00;;;;;;5051869;28;19963;-79
2023/03/24 12:33:30;;;;;;;;;;;15.50;1.00;;;;;;5022456;28;20273;-78
2023/03/24 12:36:21;;;;;;;;;;;15.60;1.00;;;;;;5044879;28;19919;-79
2023/03/24 12:39:17;;;;;;;;;;;15.50;1.00;;;;;;5046717;28;20304;-78
2023/03/24 12:42:02;;;;;;;;;;;15.60;1.00;;;;;;5031843;28;20287;-79
2023/03/24 12:44:41;;;;;;;;;;;15.60;1.00;;;;;;5052771;28;19912;-79
2023/03/24 12:47:25;;;;;;;;;;;15.80;1.00;;;;;;5091516;28;20383;-80
2023/03/24 12:49:56;;;;;;;;;;;15.80;1.00;;;;;;5092290;28;19923;-80
2023/03/24 12:52:51;;;;;;;;;;;15.90;1.00;;;;;;5092053;28;19957;-80
2023/03/24 12:55:33;;;;;;;;;;;16.10;1.00;;;;;;5072166;28;19912;-80
2023/03/24 12:58:12;;;;;;;;;;;16.20;1.00;;;;;;5071876;28;19909;-80
2023/03/24 13:00:44;;;;;;;;;;;16.30;1.00;;;;;;5071755;28;20338;-80
2023/03/24 13:03:11;;;;;;;;;;;16.10;1.00;;;;;;5071851;28;19930;-79
2023/03/24 13:09:11;;;;;;;;;;;16.00;1.00;;;;;;5081434;28;20373;-80
2023/03/24 13:11:44;;;;;;;;;;;15.70;1.00;;;;;;5051650;28;19913;-79
2023/03/24 13:14:20;;;;;;;;;;;15.90;1.00;;;;;;5071059;28;19932;-80
2023/03/24 13:17:09;;;;;;;;;;;16.20;1.00;;;;;;5071844;28;19944;-80
2023/03/24 13:19:52;;;;;;;;;;;16.50;1.00;;;;;;5051649;28;19909;-80
2023/03/24 13:22:45;;;;;;;;;;;16.70;1.00;;;;;;5040745;28;19913;-80
2023/03/24 13:25:30;;;;;;;;;;;16.70;1.00;;;;;;5035246;28;20011;-79
2023/03/24 13:27:59;;;;;;;;;;;16.40;1.00;;;;;;5031639;28;19909;-80
2023/03/24 13:30:27;;;;;;;;;;;16.40;1.00;;;;;;5015047;28;19910;-80
2023/03/24 13:33:21;;;;;;;;;;;16.60;1.00;;;;;;5031547;28;19913;-79
2023/03/24 13:38:56;;;;;;;;;;;16.20;1.00;;;;;;5031832;28;19924;-79
2023/03/24 13:41:45;;;;;;;;;;;16.30;1.00;;;;;;5032569;28;19917;-80
2023/03/24 13:44:30;;;;;;;;;;;16.20;1.00;;;;;;5051542;28;19925;-79
2023/03/24 13:47:09;;;;;;;;;;;16.40;1.00;;;;;;5053041;28;19909;-79
2023/03/24 13:49:40;;;;;;;;;;;16.50;1.00;;;;;;5093685;28;20286;-80
2023/03/24 13:52:29;;;;;;;;;;;16.60;1.00;;;;;;5094854;28;19962;-79
2023/03/24 13:58:09;;;;;;;;;;;16.80;1.00;;;;;;5118127;28;20397;-87
2023/03/24 14:01:09;;;;;;;;;;;16.90;1.00;;;;;;5118348;28;19915;-85
2023/03/24 14:03:42;;;;;;;;;;;16.80;1.00;;;;;;5095549;28;19919;-82
2023/03/24 14:06:41;;;;;;;;;;;16.70;1.00;;;;;;5099204;28;19938;-82
2023/03/24 14:09:39;;;;;;;;;;;16.70;1.00;;;;;;5117708;28;19908;-89
2023/03/24 14:15:12;;;;;;;;;;;16.70;1.00;;;;;;5097605;28;19919;-90
2023/03/24 14:20:57;;;;;;;;;;;16.30;1.00;;;;;;5117866;28;20286;-90
2023/03/24 14:23:40;;;;;;;;;;;16.40;1.00;;;;;;5088899;28;19973;-91
2023/03/24 14:26:22;;;;;;;;;;;16.40;1.00;;;;;;5096945;28;19908;-81
2023/03/24 14:29:03;;;;;;;;;;;16.30;1.00;;;;;;5108064;28;19911;-82
2023/03/24 14:31:30;;;;;;;;;;;16.20;1.00;;;;;;5098814;28;19916;-81
2023/03/24 14:34:02;;;;;;;;;;;16.10;1.00;;;;;;5079948;28;19953;-82
2023/03/24 14:42:33;;;;;;;;;;;16.00;1.00;;;;;;5117250;28;19953;-89
2023/03/24 14:45:35;;;;;;;;;;;16.00;1.00;;;;;;5100037;28;20317;-89
2023/03/24 14:51:14;;;;;;;;;;;16.10;1.00;;;;;;5054707;28;20320;-89
2023/03/24 14:56:45;;;;;;;;;;;16.10;1.00;;;;;;5054793;28;19916;-90
2023/03/24 15:02:26;;;;;;;;;;;16.20;1.00;;;;;;5034502;28;19991;-89
2023/03/24 15:05:15;;;;;;;;;;;16.20;1.00;;;;;;5018138;28;20024;-89
2023/03/24 15:17:21;;;;;;;;;;;16.40;1.00;;;;;;5034594;28;19999;-88
2023/03/24 15:20:09;;;;;;;;;;;16.50;1.00;;;;;;5037221;28;20330;-89
2023/03/24 15:25:40;;;;;;;;;;;16.80;1.00;;;;;;5096741;28;20397;-88
2023/03/24 15:31:09;;;;;;;;;;;17.40;1.00;;;;;;5075455;28;19924;-87
2023/03/24 15:36:39;;;;;;;;;;;18.20;1.00;;;;;;5090640;28;19923;-88
2023/03/24 15:39:39;;;;;;;;;;;18.50;1.00;;;;;;5084540;28;19966;-88
2023/03/24 15:45:29;;;;;;;;;;;18.50;1.00;;;;;;5075265;28;19959;-86
2023/03/24 15:47:55;;;;;;;;;;;18.20;1.00;;;;;;5081692;28;19908;-83
2023/03/24 15:50:45;;;;;;;;;;;18.20;1.00;;;;;;5074784;28;19912;-84
2023/03/24 15:53:40;;;;;;;;;;;18.30;1.00;;;;;;5081782;28;19923;-86
2023/03/24 15:56:26;;;;;;;;;;;18.10;1.00;;;;;;5087724;28;19916;-83
2023/03/24 15:58:57;;;;;;;;;;;18.30;1.00;;;;;;5077976;28;19919;-84
2023/03/24 16:01:49;;;;;;;;;;;18.20;1.00;;;;;;5082657;28;19942;-89
2023/03/24 16:04:16;;;;;;;;;;;18.10;1.00;;;;;;5092819;28;19913;-85
2023/03/24 16:06:47;;;;;;;;;;;17.70;1.00;;;;;;5093942;28;19912;-86
2023/03/24 16:09:25;;;;;;;;;;;17.30;1.00;;;;;;5077255;28;19919;-85
2023/03/24 16:11:51;;;;;;;;;;;16.90;1.00;;;;;;5111304;28;19908;-85
2023/03/24 16:14:51;;;;;;;;;;;16.80;1.00;;;;;;5087614;28;20330;-87
2023/03/24 16:20:39;;;;;;;;;;;16.60;1.00;;;;;;5095186;28;19934;-86
2023/03/24 16:23:27;;;;;;;;;;;16.50;1.00;;;;;;5085511;28;19999;-87
2023/03/24 16:29:15;;;;;;;;;;;16.10;1.00;;;;;;5074039;28;20387;-82
2023/03/24 16:32:03;;;;;;;;;;;15.90;1.00;;;;;;5073040;28;20355;-83
2023/03/24 16:34:51;;;;;;;;;;;15.90;1.00;;;;;;5072774;28;19970;-82
2023/03/24 16:40:37;;;;;;;;;;;15.70;1.00;;;;;;5074072;28;20002;-85
2023/03/24 16:43:15;;;;;;;;;;;15.80;1.00;;;;;;5073379;28;19915;-85
2023/03/24 16:49:15;;;;;;;;;;;15.70;1.00;;;;;;5074293;28;19915;-82
2023/03/24 16:51:40;;;;;;;;;;;15.90;1.00;;;;;;5097021;28;19935;-81
2023/03/24 16:54:15;;;;;;;;;;;16.20;1.00;;;;;;5094074;28;19920;-81
2023/03/24 16:59:44;;;;;;;;;;;17.00;1.00;;;;;;5094526;28;19916;-86
2023/03/24 17:02:47;;;;;;;;;;;17.00;1.00;;;;;;5076829;28;19908;-85
2023/03/24 17:08:17;;;;;;;;;;;16.60;1.00;;;;;;5094382;28;19961;-85
2023/03/24 17:10:44;;;;;;;;;;;16.10;1.00;;;;;;5094344;28;20405;-85
2023/03/24 17:19:17;;;;;;;;;;;15.70;1.00;;;;;;5094948;28;19915;-89
2023/03/24 17:30:51;;;;;;;;;;;15.20;1.00;;;;;;5097876;28;19916;-84
2023/03/24 17:33:27;;;;;;;;;;;15.00;1.00;;;;;;5079898;28;19924;-84
2023/03/24 17:39:15;;;;;;;;;;;14.60;1.00;;;;;;5106275;28;19919;-84
2023/03/24 17:41:45;;;;;;;;;;;14.60;1.00;;;;;;5098214;28;20003;-83
2023/03/24 17:44:27;;;;;;;;;;;14.50;1.00;;;;;;5086563;28;19908;-85
2023/03/24 17:47:27;;;;;;;;;;;14.40;1.00;;;;;;5096238;28;19912;-88
2023/03/24 17:49:57;;;;;;;;;;;14.30;1.00;;;;;;5079959;28;19908;-87
2023/03/24 17:52:22;;;;;;;;;;;14.20;1.00;;;;;;5080047;28;19916;-87
2023/03/24 18:04:09;;;;;;;;;;;13.90;1.00;;;;;;5104724;28;19922;-85
2023/03/24 18:07:03;;;;;;;;;;;13.80;1.00;;;;;;5092578;28;19951;-83
2023/03/24 18:09:45;;;;;;;;;;;13.80;1.00;;;;;;5079388;28;19919;-85
2023/03/24 18:12:45;;;;;;;;;;;13.80;1.00;;;;;;5079396;28;19908;-83
2023/03/24 18:15:39;;;;;;;;;;;13.70;1.00;;;;;;5118109;28;19912;-84
2023/03/24 18:21:07;;;;;;;;;;;13.60;1.00;;;;;;5117512;28;19919;-84
2023/03/24 18:23:39;;;;;;;;;;;13.60;1.00;;;;;;5115298;28;19908;-85